x

Molasses Reef, Fl (mlrf1) Weather Station

7:00pm - Sat 4th Jul 2015 All times are EDT. -4 hours from GMT.

  • Wind
    13mph, 14mph gusts
  • Sea Temp 86°f
  • Air Temp 84°f
  • Sea Pressure 1018mb
  • Molasses Reef, Fl
  • Molasses Reef, Fl

More Historic Weather Station data

Upgrade to MSW Pro to gain access to the past 30 days of data for over 8000 Wavebouys and Weather Stations around the globe.

Join Pro

Comparision Forecast

View Surf forecast
   
Sat 07/04 7:00pm 13 14 mph 1018mb 86f 84f
6:00pm 14 15 mph 1018mb 86f 84f
5:00pm 16
mph
1018mb 86f 84f
4:00pm 13 14 mph 1018.9mb 86f 84f
3:00pm 16 17 mph 1018.9mb 87f 84f
2:00pm 15 16 mph 1019.3mb 86f 84f
1:00pm 16 17 mph 1019.7mb 86f 84f
12:00pm 14 15 mph 1019.9mb 86f 84f
11:00am 15 16 mph 1019.6mb 86f 84f
10:00am 14 15 mph 1019.3mb 85f 84f
9:00am 14 15 mph 1019.2mb 85f 84f
8:00am 14 15 mph 1018.7mb 85f 84f
7:00am 13 15 mph 1018.3mb 85f 83f
6:00am 13 15 mph 1018.1mb 85f 83f
5:00am 10 13 mph 1017.6mb 85f 83f
4:00am 9 10 mph 1017.6mb 85f 83f
3:00am 10 11 mph 1018.1mb 85f 83f
2:00am 9 10 mph 1018.6mb 85f 83f
1:00am 9
mph
1019mb 85f 84f
12:00am 11 13 mph 1019.1mb 85f 83f
Fri 07/03 11:00pm 11 13 mph 1019.3mb 85f 84f
10:00pm 10 11 mph 1018.8mb 85f 83f
9:00pm 18 20 mph 1018.3mb 85f 83f
8:00pm 13 14 mph 1017.9mb 85f 84f
7:00pm 17 18 mph 1017.3mb 85f 84f
6:00pm 11 13 mph 1017.3mb 86f 84f
5:00pm 11 13 mph 1017.9mb 86f 84f
4:00pm 9 11 mph 1017.8mb 86f 84f
3:00pm 14 15 mph 1018mb 86f 83f
2:00pm 13 14 mph 1018.5mb 86f 84f
1:00pm 5 6 mph 1019mb 86f 81f
12:00pm 11 13 mph 1019.1mb 86f 84f
11:00am 11 14 mph 1018.7mb 86f 84f
10:00am 11 13 mph 1018.7mb 85f 84f
9:00am 13 14 mph 1018.7mb 85f 84f
8:00am 13 14 mph 1018.1mb 85f 83f
7:00am 14 15 mph 1017.5mb 85f 83f
6:00am 14 16 mph 1017.2mb 85f 83f
5:00am 14 15 mph 1017.5mb 85f 84f
4:00am 14 15 mph 1017.4mb 85f 83f
3:00am 11 13 mph 1017.4mb 85f 83f
2:00am 9 10 mph 1018mb 85f 83f
1:00am 10 11 mph 1018.5mb 85f 84f
12:00am 8 9 mph 1019.7mb 85f 84f
Thu 07/02 11:00pm 8
mph
1019.8mb 85f 84f
10:00pm 9 10 mph 1019.2mb 85f 84f
9:00pm 9 10 mph 1019.1mb 85f 84f
8:00pm 13 15 mph 1018.6mb 85f 84f
7:00pm 13 16 mph 1017.3mb 85f 84f
6:00pm 13 14 mph 1017.1mb 86f 84f
5:00pm 14 15 mph 1017.7mb 86f 84f
4:00pm 9 11 mph 1018.3mb 86f 84f
3:00pm 9 10 mph 1019.2mb 86f 84f
2:00pm 8 9 mph 1019.6mb 87f 84f
1:00pm 8 9 mph 1020.2mb 86f 84f
12:00pm 8 9 mph 1020mb 86f 84f
11:00am 9 10 mph 1020mb 85f 84f
10:00am 13 14 mph 1019.6mb 85f 84f
9:00am 15 16 mph 1019.3mb 85f 84f
8:00am 20 22 mph 1018.7mb 85f 84f
7:00am 21 22 mph 1018mb 85f 84f
6:00am 16 17 mph 1017.6mb 85f 84f
5:00am 20 21 mph 1017.6mb 85f 84f
4:00am 16 17 mph 1017.8mb 85f 84f
3:00am 17 18 mph 1018.1mb 85f 84f
2:00am 20 22 mph 1018.6mb 85f 84f
1:00am 17 18 mph 1019.4mb 85f 84f
12:00am 14 15 mph 1020.1mb 85f 85f
Wed 07/01 11:00pm 11 13 mph 1020.5mb 85f 84f
10:00pm 13
mph
1019.6mb 86f 84f
9:00pm 10 11 mph 1019.2mb 85f 84f
8:00pm 9 10 mph 1019.2mb 85f 84f
7:00pm 9 10 mph 1019.2mb 85f 85f
6:00pm 9 11 mph 1018.8mb 86f 85f
5:00pm 10
mph
1018.9mb 86f 85f
4:00pm 9 10 mph 1018.9mb 86f 85f
3:00pm 11 13 mph 1019.1mb 86f 84f
2:00pm 14 16 mph 1019.8mb 86f 85f
1:00pm 14
mph
1020.5mb 86f 84f
12:00pm 10 11 mph 1021mb 86f 85f
11:00am 10
mph
1020.5mb 85f 84f
10:00am 11 13 mph 1021mb 85f 84f
9:00am 13 14 mph 1020.5mb 85f 84f
8:00am 16 17 mph 1019.8mb 85f 83f
7:00am 18 20 mph 1019.8mb 85f 82f
6:00am 13 15 mph 1019.8mb 85f 79f
5:00am 15 17 mph 1019.5mb 85f 83f
4:00am 14 15 mph 1019.7mb 85f 84f
3:00am 9 10 mph 1020mb 85f 84f
2:00am 8
mph
1020.6mb 85f 84f
1:00am 7 8 mph 1021mb 85f 84f